Time;durP1;ratioP1;P1;durP2;ratioP2;P2;SDS_P1;SDS_P2;PMS_P1;PMS_P2;Temp;Humidity;BMP_temperature;BMP_pressure;BME280_temperature;BME280_humidity;BME280_pressure;Samples;Min_cycle;Max_cycle;Signal;HPM_P1;HPM_P2
2023/08/03 00:00:40;;;;;;;3.85;1.77;;;;;;;21.10;66.12;95584.00;10530047;28;20065;-29
2023/08/03 00:05:40;;;;;;;5.70;1.33;;;;;;;21.11;64.37;95578.03;10553118;28;20034;-29
2023/08/03 00:10:41;;;;;;;6.70;1.93;;;;;;;21.07;63.36;95582.38;10541437;28;20040;-29
2023/08/03 00:15:41;;;;;;;2.40;1.20;;;;;;;21.01;63.39;95613.09;10530390;28;20039;-29
2023/08/03 00:20:42;;;;;;;2.97;1.50;;;;;;;21.03;63.00;95605.41;10556916;28;20028;-30
2023/08/03 00:25:42;;;;;;;4.20;1.30;;;;;;;21.05;62.76;95599.41;10548461;28;20069;-29
2023/08/03 00:30:42;;;;;;;3.60;1.27;;;;;;;21.06;63.11;95598.53;10541299;28;20329;-29
2023/08/03 00:35:45;;;;;;;3.03;1.50;;;;;;;21.08;62.98;95601.88;10545598;28;20368;-29
2023/08/03 00:40:46;;;;;;;1.77;0.90;;;;;;;21.03;62.97;95593.53;10546974;28;20028;-29
2023/08/03 00:45:47;;;;;;;3.60;1.42;;;;;;;21.13;63.99;95597.47;10543256;28;20027;-29
2023/08/03 00:50:47;;;;;;;6.43;1.30;;;;;;;21.12;63.97;95585.63;10538444;28;20320;-30
2023/08/03 00:55:47;;;;;;;4.57;1.87;;;;;;;21.14;63.38;95560.16;10508826;28;20031;-30
2023/08/03 01:00:48;;;;;;;3.53;1.23;;;;;;;21.15;62.67;95580.44;10554498;28;20774;-29
2023/08/03 01:05:49;;;;;;;2.92;1.55;;;;;;;21.13;62.60;95592.41;10551753;28;20032;-29
2023/08/03 01:10:50;;;;;;;3.67;1.15;;;;;;;21.13;62.77;95600.03;10537210;28;20038;-29
2023/08/03 01:15:50;;;;;;;5.22;2.20;;;;;;;21.12;62.68;95585.63;10521248;28;20032;-29
2023/08/03 01:20:51;;;;;;;4.23;1.57;;;;;;;21.11;62.67;95563.63;10534614;28;20032;-29
2023/08/03 01:25:52;;;;;;;3.03;1.27;;;;;;;21.12;62.50;95595.81;10545002;28;20024;-28
2023/08/03 01:30:52;;;;;;;5.00;1.30;;;;;;;21.11;62.36;95580.59;10510693;28;20045;-29
2023/08/03 01:35:53;;;;;;;6.32;1.58;;;;;;;21.11;62.29;95599.25;10528856;28;20024;-29
2023/08/03 01:40:53;;;;;;;4.93;1.60;;;;;;;21.11;62.32;95599.25;10519264;28;20035;-29
2023/08/03 01:45:54;;;;;;;3.30;1.27;;;;;;;21.10;62.14;95610.31;10517599;28;20444;-29
2023/08/03 01:50:54;;;;;;;3.40;1.47;;;;;;;21.11;62.13;95606.03;10529578;28;20039;-29
2023/08/03 01:55:54;;;;;;;5.23;1.10;;;;;;;21.08;62.03;95604.44;10526773;28;20293;-29
2023/08/03 02:00:55;;;;;;;4.17;1.13;;;;;;;21.09;61.92;95610.34;10504284;28;20054;-29
2023/08/03 02:05:55;;;;;;;5.00;1.50;;;;;;;21.09;61.89;95605.25;10530168;28;20036;-29
2023/08/03 02:10:56;;;;;;;3.47;1.40;;;;;;;21.08;61.91;95614.63;10507887;28;20039;-29
2023/08/03 02:15:56;;;;;;;3.67;1.30;;;;;;;21.05;62.08;95598.59;10505073;28;20128;-29
2023/08/03 02:20:57;;;;;;;2.33;1.10;;;;;;;21.04;62.05;95602.03;10542646;28;20032;-29
2023/08/03 02:25:57;;;;;;;4.88;1.63;;;;;;;21.09;61.59;95601.00;10534715;28;20031;-29
2023/08/03 02:30:58;;;;;;;4.57;1.83;;;;;;;21.11;61.02;95614.53;10542214;28;20040;-29
2023/08/03 02:36:04;;;;;;;3.38;1.45;;;;;;;21.10;61.78;95622.19;10523676;28;20032;-29
2023/08/03 02:41:06;;;;;;;4.25;1.33;;;;;;;21.07;62.14;95612.91;10545283;28;20103;-29
2023/08/03 02:46:08;;;;;;;3.25;1.23;;;;;;;21.06;61.79;95607.88;10506610;28;20028;-30
2023/08/03 02:51:09;;;;;;;3.35;1.23;;;;;;;21.04;61.81;95653.72;10522752;28;20047;-29
2023/08/03 02:56:12;;;;;;;3.92;1.08;;;;;;;21.04;61.75;95653.72;10511469;28;20032;-29
2023/08/03 03:01:19;;;;;;;2.63;0.98;;;;;;;21.04;61.72;95646.09;10525204;28;20260;-29
2023/08/03 03:06:21;;;;;;;3.83;1.25;;;;;;;21.05;61.55;95668.13;10503670;28;20024;-29
2023/08/03 03:11:24;;;;;;;4.20;1.05;;;;;;;21.03;62.02;95658.84;10513292;28;20162;-29
2023/08/03 03:16:28;;;;;;;5.57;2.05;;;;;;;21.07;61.09;95678.28;10513970;28;20024;-29
2023/08/03 03:21:30;;;;;;;4.05;1.55;;;;;;;21.10;61.42;95686.66;10526405;28;20028;-29
2023/08/03 03:26:30;;;;;;;3.20;0.93;;;;;;;21.08;61.27;95683.34;10534717;28;20024;-29
2023/08/03 03:31:30;;;;;;;2.50;1.10;;;;;;;21.05;61.58;95673.22;10533458;28;20039;-29
2023/08/03 03:36:33;;;;;;;5.38;1.58;;;;;;;21.04;61.52;95686.00;10518289;28;20020;-29
2023/08/03 03:41:33;;;;;;;1.08;0.80;;;;;;;21.01;61.51;95679.28;10510538;28;20032;-29
2023/08/03 03:46:34;;;;;;;2.50;1.53;;;;;;;21.02;61.39;95690.28;10514223;28;20169;-28
2023/08/03 03:51:34;;;;;;;2.33;1.00;;;;;;;20.99;61.45;95681.00;10540737;28;20040;-31
2023/08/03 03:56:35;;;;;;;1.75;0.75;;;;;;;20.98;61.40;95698.88;10526710;28;20314;-29
2023/08/03 04:01:35;;;;;;;1.43;0.70;;;;;;;20.91;60.87;95687.19;10516733;28;20028;-29
2023/08/03 04:06:37;;;;;;;1.67;0.80;;;;;;;20.90;60.41;95704.13;10504656;28;21171;-30
2023/08/03 04:11:37;;;;;;;3.38;1.00;;;;;;;20.90;59.90;95688.88;10523382;28;20039;-29
2023/08/03 04:16:37;;;;;;;3.13;0.80;;;;;;;20.87;59.62;95696.59;10534791;28;20115;-29
2023/08/03 04:21:38;;;;;;;1.63;0.73;;;;;;;20.85;59.06;95708.50;10518101;28;20678;-26
2023/08/03 04:26:38;;;;;;;2.17;0.83;;;;;;;20.82;59.19;95700.09;10507739;28;20294;-29
2023/08/03 04:31:42;;;;;;;1.10;0.70;;;;;;;20.85;59.11;95697.47;10511183;28;20294;-29
2023/08/03 04:36:45;;;;;;;3.03;0.90;;;;;;;20.74;58.69;95686.75;10514200;28;20055;-29
2023/08/03 04:41:45;;;;;;;4.15;1.00;;;;;;;20.78;58.58;95699.34;10535255;28;20042;-28
2023/08/03 04:46:47;;;;;;;6.63;1.05;;;;;;;20.79;58.88;95716.28;10507396;28;20133;-29
2023/08/03 04:51:49;;;;;;;3.30;0.80;;;;;;;20.80;58.51;95729.84;10532216;28;20117;-29
2023/08/03 04:56:52;;;;;;;4.63;1.10;;;;;;;20.85;59.10;95739.03;10513696;28;20293;-29
2023/08/03 05:01:53;;;;;;;1.50;0.70;;;;;;;20.83;58.58;95760.28;10516483;28;20054;-29
2023/08/03 05:06:55;;;;;;;3.10;0.70;;;;;;;20.79;58.27;95754.44;10515484;28;20027;-29
2023/08/03 05:11:55;;;;;;;2.90;1.00;;;;;;;20.80;58.28;95745.91;10531759;28;20043;-29
2023/08/03 05:16:55;;;;;;;3.10;0.80;;;;;;;20.78;58.22;95757.84;10524247;28;20444;-29
2023/08/03 05:21:57;;;;;;;2.28;0.90;;;;;;;20.79;57.91;95749.34;10533879;28;20035;-29
2023/08/03 05:26:57;;;;;;;3.97;0.95;;;;;;;20.79;57.97;95739.16;10528342;28;20107;-29
2023/08/03 05:31:58;;;;;;;5.13;1.33;;;;;;;20.69;58.20;95747.91;10535656;28;20495;-29
2023/08/03 05:36:58;;;;;;;2.33;0.70;;;;;;;20.77;57.69;95766.34;10522130;28;20033;-29
2023/08/03 05:42:00;;;;;;;3.07;0.73;;;;;;;20.77;58.13;95781.63;10537941;28;20290;-29
2023/08/03 05:47:01;;;;;;;8.65;1.40;;;;;;;20.87;60.60;95761.94;10532792;28;20304;-29
2023/08/03 05:52:02;;;;;;;1.83;0.75;;;;;;;20.87;57.93;95785.66;10547784;28;20067;-29
2023/08/03 05:57:04;;;;;;;3.00;0.90;;;;;;;20.81;57.82;95783.22;10546017;28;20066;-29
2023/08/03 06:02:19;;;;;;;2.33;0.80;;;;;;;20.82;57.67;95784.88;10535101;28;20109;-30
2023/08/03 06:07:19;;;;;;;2.72;0.80;;;;;;;20.78;57.89;95792.63;10527093;28;20028;-28
2023/08/03 06:12:20;;;;;;;46.70;3.53;;;;;;;20.80;57.53;95776.44;10523794;28;20040;-29
2023/08/03 06:17:22;;;;;;;6.07;1.23;;;;;;;20.74;57.57;95786.78;10547783;28;20039;-29
2023/08/03 06:22:23;;;;;;;7.78;1.65;;;;;;;20.73;57.36;95802.09;10544991;28;20036;-29
2023/08/03 06:27:23;;;;;;;7.07;0.90;;;;;;;20.72;57.23;95798.69;10532735;28;20036;-29
2023/08/03 06:32:27;;;;;;;3.73;1.00;;;;;;;20.73;57.29;95795.28;10542470;28;20051;-29
2023/08/03 06:37:28;;;;;;;3.15;0.73;;;;;;;20.78;57.14;95807.88;10544194;28;20304;-29
2023/08/03 06:42:28;;;;;;;4.17;0.63;;;;;;;20.79;57.12;95802.75;10539176;28;20041;-29
2023/08/03 06:47:28;;;;;;;1.23;0.57;;;;;;;20.79;56.40;95812.13;10534339;28;20292;-29
2023/08/03 06:52:29;;;;;;;1.90;0.60;;;;;;;20.74;57.05;95799.50;10540197;28;20301;-29
2023/08/03 06:57:30;;;;;;;2.15;0.60;;;;;;;20.76;57.11;95820.66;10544006;28;20027;-29
2023/08/03 07:02:30;;;;;;;1.23;0.50;;;;;;;20.71;57.27;95807.19;10531302;28;20037;-29
2023/08/03 07:07:31;;;;;;;1.65;0.52;;;;;;;20.71;56.87;95819.91;10538517;28;20074;-29
2023/08/03 07:12:32;;;;;;;1.05;0.50;;;;;;;20.69;57.03;95814.03;10549785;28;20053;-29
2023/08/03 07:17:32;;;;;;;3.03;0.65;;;;;;;20.71;56.78;95812.28;10541953;28;20024;-29
2023/08/03 07:22:32;;;;;;;0.80;0.50;;;;;;;20.71;56.68;95817.38;10533720;28;20371;-30
2023/08/03 07:27:33;;;;;;;2.03;0.57;;;;;;;20.73;57.13;95820.69;10548270;28;20286;-30
2023/08/03 07:32:34;;;;;;;2.07;0.60;;;;;;;20.74;56.82;95826.63;10542095;28;20297;-29
2023/08/03 07:37:35;;;;;;;2.22;0.70;;;;;;;20.76;56.53;95846.09;10529100;28;20073;-29
2023/08/03 07:42:35;;;;;;;2.35;0.63;;;;;;;20.70;56.70;95830.97;10534256;28;20035;-30
2023/08/03 07:47:35;;;;;;;3.90;0.80;;;;;;;20.68;56.74;95840.34;10538129;28;20115;-30
2023/08/03 07:52:36;;;;;;;2.53;0.43;;;;;;;20.64;56.69;95827.72;10551644;28;20637;-29
2023/08/03 07:57:38;;;;;;;1.42;1.13;;;;;;;20.68;56.42;95850.50;10553780;28;20315;-29
2023/08/03 08:02:38;;;;;;;3.25;0.70;;;;;;;20.66;56.63;95833.59;10559799;28;20097;-29
2023/08/03 08:07:39;;;;;;;2.63;0.60;;;;;;;20.67;56.35;95866.66;10543759;28;20444;-29
2023/08/03 08:12:39;;;;;;;0.97;0.40;;;;;;;20.66;56.23;95870.06;10551050;28;20596;-28
2023/08/03 08:17:39;;;;;;;1.70;0.63;;;;;;;20.73;56.36;95866.50;10540955;28;20406;-29
2023/08/03 08:22:40;;;;;;;2.00;0.70;;;;;;;20.74;56.17;95875.81;10524906;28;20127;-29
2023/08/03 08:27:40;;;;;;;1.13;0.40;;;;;;;20.74;56.43;95883.47;10527824;28;20033;-29
2023/08/03 08:32:40;;;;;;;2.10;0.53;;;;;;;20.68;56.48;95883.59;10549736;28;20036;-29
2023/08/03 08:37:41;;;;;;;3.47;0.50;;;;;;;20.67;56.42;95887.00;10542533;28;20032;-31
2023/08/03 08:42:41;;;;;;;1.17;0.50;;;;;;;20.64;56.37;95881.97;10555815;28;20405;-29
2023/08/03 08:47:41;;;;;;;4.10;0.50;;;;;;;20.61;56.54;95887.13;10547444;28;20500;-29
2023/08/03 08:52:43;;;;;;;2.07;0.57;;;;;;;20.63;56.39;95900.63;10540455;28;20304;-29
2023/08/03 08:57:44;;;;;;;1.63;0.63;;;;;;;20.62;56.49;95893.06;10534126;28;20270;-29
2023/08/03 09:02:45;;;;;;;2.00;0.75;;;;;;;20.73;57.25;95897.03;10534484;28;20505;-29
2023/08/03 09:07:59;;;;;;;1.15;0.60;;;;;;;20.85;60.37;95896.75;10548158;28;20032;-29
2023/08/03 09:12:59;;;;;;;1.63;0.40;;;;;;;20.87;58.71;95909.50;10528471;28;20103;-29
2023/08/03 09:18:05;;;;;;;2.75;0.73;;;;;;;20.84;56.89;95899.34;10529150;28;20290;-29
2023/08/03 09:23:05;;;;;;;1.27;0.60;;;;;;;20.83;56.96;95903.59;10529354;28;20043;-30
2023/08/03 09:28:05;;;;;;;1.80;0.47;;;;;;;20.81;57.28;95892.59;10528391;28;20513;-28
2023/08/03 09:33:15;;;;;;;0.60;0.23;;;;;;;20.83;57.42;95905.28;10543760;28;20040;-29
2023/08/03 09:38:23;;;;;;;1.55;0.47;;;;;;;20.81;57.35;95910.41;10528647;28;20092;-30
2023/08/03 09:43:24;;;;;;;1.90;0.52;;;;;;;20.81;57.53;95907.88;10544966;28;20074;-29
2023/08/03 09:48:25;;;;;;;0.65;0.40;;;;;;;20.82;57.51;95914.63;10535922;28;20105;-29
2023/08/03 09:53:30;;;;;;;0.73;0.40;;;;;;;20.89;60.67;95913.66;10530601;28;20039;-29
2023/08/03 09:58:45;;;;;;;2.13;0.60;;;;;;;20.92;61.22;95905.97;10531507;28;20413;-30
2023/08/03 10:03:49;;;;;;;0.73;0.43;;;;;;;20.91;58.69;95906.84;10543784;28;20517;-30
2023/08/03 10:09:01;;;;;;;1.60;0.50;;;;;;;20.88;58.14;95914.53;10540811;28;20035;-29
2023/08/03 10:14:04;;;;;;;1.00;0.50;;;;;;;20.86;58.06;95915.44;10545696;28;20378;-29
2023/08/03 10:19:05;;;;;;;0.85;0.43;;;;;;;20.85;58.10;95917.13;10553908;28;20036;-29
2023/08/03 10:24:11;;;;;;;0.68;0.45;;;;;;;20.83;58.41;95923.97;10533054;28;20024;-29
2023/08/03 10:29:12;;;;;;;1.80;0.60;;;;;;;20.85;58.35;95911.19;10542179;28;20087;-29
2023/08/03 10:34:14;;;;;;;0.80;0.37;;;;;;;20.84;58.68;95919.69;10528005;28;20052;-28
2023/08/03 10:39:16;;;;;;;0.95;0.30;;;;;;;20.81;58.51;95920.59;10531597;28;20043;-29
2023/08/03 10:44:21;;;;;;;1.45;0.55;;;;;;;20.93;61.13;95922.06;10528815;28;20028;-31
2023/08/03 10:49:25;;;;;;;1.27;0.70;;;;;;;20.92;60.80;95916.16;10540484;28;20067;-30
2023/08/03 10:54:30;;;;;;;1.02;0.52;;;;;;;20.92;59.12;95930.56;10549749;28;20031;-29
2023/08/03 10:59:41;;;;;;;0.90;0.40;;;;;;;20.89;58.65;95921.28;10535482;28;20040;-29
2023/08/03 11:04:42;;;;;;;1.33;0.40;;;;;;;20.87;58.89;95910.31;10515640;28;20033;-29
2023/08/03 11:09:45;;;;;;;1.20;0.40;;;;;;;20.86;58.73;95918.81;10539792;28;20040;-29
2023/08/03 11:14:47;;;;;;;0.70;0.32;;;;;;;20.86;58.99;95926.44;10531221;28;20561;-29
2023/08/03 11:19:48;;;;;;;1.63;0.45;;;;;;;20.86;58.90;95912.88;10532457;28;20028;-29
2023/08/03 11:24:54;;;;;;;4.55;0.80;;;;;;;20.88;60.11;95906.06;10535858;28;20032;-29
2023/08/03 11:29:56;;;;;;;3.55;1.00;;;;;;;20.95;58.47;95910.13;10537198;28;20036;-29
2023/08/03 11:35:01;;;;;;;4.53;0.80;;;;;;;21.00;56.57;95916.81;10527998;28;20602;-28
2023/08/03 11:40:05;;;;;;;5.13;0.80;;;;;;;21.02;55.84;95904.88;10544025;28;20080;-29
2023/08/03 11:45:06;;;;;;;2.00;0.60;;;;;;;21.02;54.33;95915.06;10533332;28;20038;-29
2023/08/03 11:50:07;;;;;;;4.57;0.90;;;;;;;21.09;53.39;95916.59;10530681;28;20394;-29
2023/08/03 11:55:08;;;;;;;8.10;0.95;;;;;;;21.13;53.06;95912.28;10521888;28;20028;-28
2023/08/03 12:00:09;;;;;;;2.22;0.60;;;;;;;21.10;53.13;95913.19;10524254;28;20357;-29
2023/08/03 12:05:17;;;;;;;4.57;0.85;;;;;;;21.09;53.37;95924.25;10531873;28;20405;-29
2023/08/03 12:10:17;;;;;;;3.05;0.80;;;;;;;21.12;53.50;95911.44;10526334;28;20047;-29
2023/08/03 12:15:17;;;;;;;7.23;0.87;;;;;;;21.12;53.98;95913.97;10527890;28;20042;-29
2023/08/03 12:20:18;;;;;;;2.53;0.60;;;;;;;21.27;52.36;95920.41;10518919;28;20047;-29
2023/08/03 12:25:19;;;;;;;1.17;0.47;;;;;;;21.24;52.22;95926.41;10528211;28;20303;-29
2023/08/03 12:30:19;;;;;;;2.00;0.50;;;;;;;21.27;52.19;95945.88;10536026;28;20410;-29
2023/08/03 12:35:20;;;;;;;2.80;0.80;;;;;;;21.22;52.56;95950.25;10532706;28;20282;-29
2023/08/03 12:40:20;;;;;;;4.43;0.50;;;;;;;21.23;52.49;95950.19;10550878;28;20111;-30
2023/08/03 12:45:24;;;;;;;2.93;0.43;;;;;;;21.26;52.32;95950.16;10541136;28;20040;-29
2023/08/03 12:50:25;;;;;;;2.05;0.93;;;;;;;21.27;51.81;95945.88;10544885;28;20402;-28
2023/08/03 12:55:25;;;;;;;4.03;0.63;;;;;;;21.37;51.18;95940.53;10543069;28;20036;-29
2023/08/03 13:00:28;;;;;;;2.70;1.67;;;;;;;21.36;52.12;95956.69;10532046;28;20040;-29
2023/08/03 13:05:28;;;;;;;7.93;1.23;;;;;;;21.36;53.17;95961.78;10554367;28;20035;-29
2023/08/03 13:10:31;;;;;;;2.27;0.70;;;;;;;21.37;52.62;95962.59;10544505;28;20567;-29
2023/08/03 13:15:31;;;;;;;0.95;0.40;;;;;;;21.36;52.29;95956.69;10550955;28;20031;-29
2023/08/03 13:20:34;;;;;;;8.63;1.40;;;;;;;21.32;52.57;95970.34;10543445;28;20024;-29
2023/08/03 13:25:35;;;;;;;2.22;0.70;;;;;;;21.26;53.32;95962.03;10532371;28;20047;-29
2023/08/03 13:30:35;;;;;;;5.72;0.85;;;;;;;21.30;53.68;95968.75;10532262;28;20172;-29
2023/08/03 13:35:35;;;;;;;4.00;0.93;;;;;;;21.35;53.37;95970.31;10551622;28;20016;-29
2023/08/03 13:40:37;;;;;;;3.58;0.70;;;;;;;21.33;53.25;95961.88;10536074;28;20028;-30
2023/08/03 13:45:37;;;;;;;5.18;0.80;;;;;;;21.24;54.75;95968.88;10536080;28;20032;-29
2023/08/03 13:50:38;;;;;;;2.63;0.70;;;;;;;21.32;54.18;95955.06;10526153;28;20036;-30
2023/08/03 13:55:38;;;;;;;5.07;0.60;;;;;;;21.46;53.14;95947.97;10534204;28;20394;-29
2023/08/03 14:00:39;;;;;;;2.17;1.03;;;;;;;21.41;53.79;95954.84;10536827;28;20116;-29
2023/08/03 14:05:39;;;;;;;25.05;5.63;;;;;;;21.32;54.37;95955.06;10551841;28;20084;-29
2023/08/03 14:10:39;;;;;;;6.37;1.40;;;;;;;21.24;55.53;95945.97;10534692;28;20032;-29
2023/08/03 14:15:40;;;;;;;5.10;0.60;;;;;;;21.18;56.29;95956.28;10523461;28;20024;-29
2023/08/03 14:20:40;;;;;;;5.93;1.17;;;;;;;21.07;56.49;95948.88;10535707;28;20036;-29
2023/08/03 14:25:40;;;;;;;4.70;1.23;;;;;;;21.08;56.88;95963.28;10526945;28;20036;-30
2023/08/03 14:30:41;;;;;;;4.40;1.40;;;;;;;21.08;57.05;95960.75;10547267;28;20069;-29
2023/08/03 14:35:41;;;;;;;3.57;1.10;;;;;;;21.06;56.98;95967.56;10531717;28;20031;-29
2023/08/03 14:40:41;;;;;;;9.70;1.27;;;;;;;21.09;57.26;95964.13;10545549;28;20028;-29
2023/08/03 14:45:51;;;;;;;2.90;0.97;;;;;;;21.07;57.21;95958.22;10532819;28;20517;-29
2023/08/03 14:50:52;;;;;;;14.80;2.28;;;;;;;21.12;57.12;95957.25;10537820;28;20402;-31
2023/08/03 14:55:59;;;;;;;23.52;2.80;;;;;;;21.24;57.51;95964.59;10540332;28;20024;-29
2023/08/03 15:01:05;;;;;;;13.70;1.50;;;;;;;21.21;56.93;95951.94;10516898;28;20036;-29
2023/08/03 15:06:13;;;;;;;5.13;1.07;;;;;;;21.13;57.33;95950.47;10541321;28;20028;-29
2023/08/03 15:11:14;;;;;;;5.25;0.75;;;;;;;21.08;57.59;95955.66;10539128;28;20123;-28
2023/08/03 15:16:17;;;;;;;6.45;1.05;;;;;;;21.06;57.73;95947.19;10543353;28;20116;-29
2023/08/03 15:21:19;;;;;;;6.05;1.00;;;;;;;21.08;57.52;95947.19;10527408;28;20097;-29
2023/08/03 15:26:20;;;;;;;4.18;1.10;;;;;;;21.07;57.79;95943.78;10544131;28;20063;-29
2023/08/03 15:31:21;;;;;;;4.95;1.08;;;;;;;21.09;57.70;95944.59;10530724;28;20493;-29
2023/08/03 15:36:42;;;;;;;5.47;1.30;;;;;;;21.08;57.79;95949.72;10532125;28;20082;-29
2023/08/03 15:41:43;;;;;;;11.07;1.70;;;;;;;21.14;57.40;95960.59;10532170;28;20043;-29
2023/08/03 15:46:43;;;;;;;6.80;0.65;;;;;;;21.16;57.53;95948.69;10523880;28;20036;-29
2023/08/03 15:51:44;;;;;;;5.00;1.00;;;;;;;21.17;57.37;95963.09;10534262;28;20392;-29
2023/08/03 15:56:44;;;;;;;3.77;0.80;;;;;;;21.12;57.55;95962.34;10542885;28;20023;-29
2023/08/03 16:01:44;;;;;;;3.20;1.17;;;;;;;21.07;57.79;95963.31;10548395;28;20115;-29
2023/08/03 16:06:45;;;;;;;2.10;0.53;;;;;;;21.07;57.80;95966.69;10531778;28;20036;-30
2023/08/03 16:11:45;;;;;;;3.67;1.47;;;;;;;21.08;57.96;95965.00;10540448;28;20032;-30
2023/08/03 16:16:45;;;;;;;2.90;0.50;;;;;;;21.09;57.91;95964.97;10531076;28;20107;-30
2023/08/03 16:21:46;;;;;;;7.10;1.30;;;;;;;21.09;58.04;95992.13;10541902;28;20860;-29
2023/08/03 16:26:46;;;;;;;9.55;1.40;;;;;;;21.09;57.84;95987.88;10532515;28;20115;-30
2023/08/03 16:31:47;;;;;;;8.20;1.70;;;;;;;21.20;58.80;95990.16;10533824;28;20113;-29
2023/08/03 16:36:47;;;;;;;13.67;2.67;;;;;;;21.25;58.50;95990.91;10530606;28;20041;-29
2023/08/03 16:41:49;;;;;;;2.77;0.90;;;;;;;21.18;57.81;95997.00;10530618;28;20680;-30
2023/08/03 16:46:49;;;;;;;4.95;1.30;;;;;;;21.14;58.11;95991.13;10543046;28;20077;-29
2023/08/03 16:51:49;;;;;;;6.93;1.23;;;;;;;21.13;57.98;95997.09;10530776;28;20085;-29
2023/08/03 16:56:50;;;;;;;4.03;1.20;;;;;;;21.11;58.27;95991.22;10533321;28;20051;-29
2023/08/03 17:01:50;;;;;;;3.10;0.80;;;;;;;21.11;58.21;96000.53;10530961;28;20036;-29
2023/08/03 17:06:51;;;;;;;3.90;1.35;;;;;;;21.09;58.31;95982.78;10544582;28;20300;-29
2023/08/03 17:11:51;;;;;;;4.73;0.80;;;;;;;21.04;58.33;95979.50;10529677;28;20032;-29
2023/08/03 17:16:52;;;;;;;5.27;0.70;;;;;;;21.09;58.21;95987.88;10524302;28;20696;-29
2023/08/03 17:21:53;;;;;;;7.65;1.27;;;;;;;21.19;58.00;95991.88;10534046;28;20128;-30
2023/08/03 17:26:53;;;;;;;15.50;2.13;;;;;;;21.23;57.95;95988.38;10529379;28;20067;-30
2023/08/03 17:31:56;;;;;;;7.95;1.15;;;;;;;21.18;58.09;95997.84;10534744;28;20043;-29
2023/08/03 17:36:56;;;;;;;3.28;0.93;;;;;;;21.17;57.94;95997.88;10534787;28;20020;-29
2023/08/03 17:41:59;;;;;;;6.33;1.40;;;;;;;21.09;58.07;95999.75;10543865;28;20031;-29
2023/08/03 17:46:59;;;;;;;6.00;1.20;;;;;;;21.09;57.82;95997.19;10540379;28;20150;-29
2023/08/03 17:52:00;;;;;;;6.17;0.70;;;;;;;21.11;57.74;96005.63;10522862;28;20024;-29
2023/08/03 17:57:00;;;;;;;3.88;0.68;;;;;;;21.12;57.75;96013.25;10528923;28;20107;-29
2023/08/03 18:02:00;;;;;;;6.07;0.95;;;;;;;21.19;56.80;96013.94;10528921;28;20569;-29
2023/08/03 18:07:01;;;;;;;2.33;0.60;;;;;;;21.25;56.18;96013.81;10534392;28;20060;-29
2023/08/03 18:12:02;;;;;;;3.13;0.70;;;;;;;21.29;55.81;96012.91;10534645;28;20047;-28
2023/08/03 18:17:02;;;;;;;2.60;0.93;;;;;;;21.27;57.20;96018.00;10520485;28;20064;-28
2023/08/03 18:22:03;;;;;;;2.67;0.57;;;;;;;21.20;57.56;96020.72;10529798;28;20106;-29
2023/08/03 18:27:04;;;;;;;2.53;0.98;;;;;;;21.15;57.99;96031.00;10546348;28;20062;-29
2023/08/03 18:32:04;;;;;;;8.77;1.02;;;;;;;21.13;58.51;96031.91;10541081;28;20063;-29
2023/08/03 18:37:04;;;;;;;5.07;1.15;;;;;;;21.10;58.24;96032.81;10529059;28;20040;-29
2023/08/03 18:42:05;;;;;;;2.80;0.60;;;;;;;21.09;58.31;96038.78;10526884;28;20032;-29
2023/08/03 18:47:05;;;;;;;2.73;0.60;;;;;;;21.08;58.41;96039.66;10534030;28;20410;-29
2023/08/03 18:52:06;;;;;;;3.45;0.70;;;;;;;21.05;58.25;96047.34;10528470;28;20308;-29
2023/08/03 18:57:07;;;;;;;8.70;1.33;;;;;;;21.16;58.06;96055.59;10530092;28;20036;-29
2023/08/03 19:02:07;;;;;;;6.40;1.53;;;;;;;21.23;57.44;96054.59;10522435;28;20046;-29
2023/08/03 19:07:15;;;;;;;4.50;0.97;;;;;;;21.21;57.91;96058.06;10539998;28;20413;-30
2023/08/03 19:12:15;;;;;;;4.32;0.60;;;;;;;21.13;57.74;96044.66;10528512;28;20452;-29
2023/08/03 19:17:16;;;;;;;6.63;0.80;;;;;;;21.13;58.21;96057.38;10531866;28;20036;-29
2023/08/03 19:22:16;;;;;;;3.50;0.80;;;;;;;21.14;58.26;96062.41;10519601;28;20111;-29
2023/08/03 19:27:17;;;;;;;5.73;0.63;;;;;;;21.13;58.26;96060.75;10531178;28;20048;-31
2023/08/03 19:32:17;;;;;;;6.07;1.30;;;;;;;21.14;58.15;96057.31;10535004;28;20039;-31
2023/08/03 19:37:17;;;;;;;4.07;0.83;;;;;;;21.14;58.27;96061.59;10531521;28;20426;-30
2023/08/03 19:42:18;;;;;;;1.80;0.70;;;;;;;21.12;58.15;96068.41;10549974;28;20046;-31
2023/08/03 19:47:23;;;;;;;6.67;1.77;;;;;;;21.21;58.57;96069.06;10539339;28;20860;-30
2023/08/03 19:52:24;;;;;;;5.30;1.33;;;;;;;21.27;58.79;96063.00;10518816;28;20298;-29
2023/08/03 19:57:24;;;;;;;9.10;0.90;;;;;;;21.20;58.39;96072.47;10521198;28;20494;-29
2023/08/03 20:02:25;;;;;;;6.97;1.27;;;;;;;21.15;58.25;96084.44;10531200;28;20518;-29
2023/08/03 20:07:25;;;;;;;3.23;1.07;;;;;;;21.12;58.27;96079.44;10533158;28;20467;-30
2023/08/03 20:12:26;;;;;;;3.80;0.80;;;;;;;21.11;58.08;96087.09;10528662;28;20041;-29
2023/08/03 20:17:26;;;;;;;6.70;0.88;;;;;;;21.09;58.47;96104.09;10536240;28;20032;-29
2023/08/03 20:22:26;;;;;;;2.80;0.70;;;;;;;21.08;58.46;96097.34;10531726;28;20036;-29
2023/08/03 20:27:27;;;;;;;2.42;0.70;;;;;;;21.04;58.41;96101.66;10544545;28;20048;-29
2023/08/03 20:32:27;;;;;;;2.10;0.65;;;;;;;21.05;58.48;96102.50;10542609;28;20063;-29
2023/08/03 20:37:27;;;;;;;6.47;1.57;;;;;;;21.18;62.33;96104.78;10524674;28;20036;-29
2023/08/03 20:42:28;;;;;;;4.27;1.17;;;;;;;21.21;60.95;96094.50;10521728;28;20039;-29
2023/08/03 20:47:29;;;;;;;3.10;0.68;;;;;;;21.15;58.62;96099.72;10538656;28;20036;-31
2023/08/03 20:52:29;;;;;;;2.80;0.57;;;;;;;21.10;58.50;96106.63;10530289;28;20032;-29
2023/08/03 20:57:30;;;;;;;4.77;0.80;;;;;;;21.09;58.54;96101.56;10538862;28;20296;-29
2023/08/03 21:02:30;;;;;;;4.10;0.63;;;;;;;21.06;58.59;96105.00;10541857;28;20277;-30
2023/08/03 21:07:30;;;;;;;3.70;0.80;;;;;;;21.06;58.58;96099.91;10511520;28;20069;-29
2023/08/03 21:12:31;;;;;;;3.93;0.60;;;;;;;21.03;58.50;96089.81;10538937;28;20036;-31
2023/08/03 21:17:31;;;;;;;4.37;0.50;;;;;;;21.01;58.55;96096.63;10540620;28;20025;-29
2023/08/03 21:22:32;;;;;;;1.60;0.50;;;;;;;21.04;58.45;96100.84;10539856;28;20063;-29
2023/08/03 21:27:32;;;;;;;1.87;0.70;;;;;;;21.14;61.22;96102.31;10534553;28;20061;-29
2023/08/03 21:32:34;;;;;;;2.92;0.45;;;;;;;21.08;58.72;96098.19;10553585;28;20032;-29
2023/08/03 21:37:36;;;;;;;2.08;0.40;;;;;;;21.03;58.37;96110.16;10533014;28;20089;-29
2023/08/03 21:42:37;;;;;;;1.13;0.77;;;;;;;20.97;58.01;96104.38;10545751;28;20039;-29
2023/08/03 21:47:37;;;;;;;0.50;0.30;;;;;;;20.93;58.23;96118.00;10545621;28;20032;-29
2023/08/03 21:52:40;;;;;;;2.80;0.43;;;;;;;20.87;58.00;96111.31;10532009;28;20129;-29
2023/08/03 21:57:40;;;;;;;1.40;0.45;;;;;;;20.90;57.57;96130.78;10526196;28;20039;-29
2023/08/03 22:02:40;;;;;;;0.60;0.20;;;;;;;20.83;57.85;96111.38;10525900;28;20419;-29
2023/08/03 22:07:41;;;;;;;1.08;0.40;;;;;;;20.87;57.62;96124.03;10550887;28;20043;-29
2023/08/03 22:12:41;;;;;;;0.57;0.47;;;;;;;20.90;57.63;96125.69;10537122;28;20054;-29
2023/08/03 22:17:42;;;;;;;5.83;0.70;;;;;;;21.01;59.02;96123.78;10531644;28;20444;-29
2023/08/03 22:22:42;;;;;;;0.38;0.30;;;;;;;20.99;57.37;96117.88;10552218;28;20028;-29
2023/08/03 22:27:43;;;;;;;0.80;0.50;;;;;;;20.93;57.24;96126.47;10538607;28;20040;-30
2023/08/03 22:32:44;;;;;;;0.30;0.20;;;;;;;20.86;57.24;96121.53;10534092;28;20035;-29
2023/08/03 22:37:45;;;;;;;1.08;0.30;;;;;;;20.83;57.52;96117.31;10533171;28;20293;-31
2023/08/03 22:42:45;;;;;;;0.60;0.30;;;;;;;20.82;57.30;96123.25;10544833;28;20489;-29
2023/08/03 22:47:45;;;;;;;0.70;0.27;;;;;;;20.81;57.23;96121.56;10535530;28;20028;-30
2023/08/03 22:52:47;;;;;;;1.23;0.30;;;;;;;20.79;57.28;96117.41;10532003;28;20039;-29
2023/08/03 22:57:47;;;;;;;0.40;0.40;;;;;;;20.83;56.91;96127.50;10521178;28;20044;-29
2023/08/03 23:02:48;;;;;;;0.53;0.30;;;;;;;20.90;56.99;96120.59;10533264;28;20414;-29
2023/08/03 23:07:48;;;;;;;2.95;0.55;;;;;;;20.96;58.29;96128.97;10534223;28;20533;-29
2023/08/03 23:12:50;;;;;;;0.93;0.40;;;;;;;20.90;57.08;96131.59;10545357;28;20032;-29
2023/08/03 23:17:53;;;;;;;2.25;0.50;;;;;;;20.90;57.01;96128.25;10549553;28;20107;-29